Time;durP1;ratioP1;P1;durP2;ratioP2;P2;SDS_P1;SDS_P2;PMS_P1;PMS_P2;Temp;Humidity;BMP_temperature;BMP_pressure;BME280_temperature;BME280_humidity;BME280_pressure;Samples;Min_cycle;Max_cycle;Signal;HPM_P1;HPM_P2
2022/12/05 00:01:29;;;;;;;13.55;6.70;;;;;;;5.93;96.04;101568.25;4919794;29;20040;-46
2022/12/05 00:03:58;;;;;;;8.45;5.05;;;;;;;5.94;95.79;101561.63;4924253;29;20048;-40
2022/12/05 00:06:27;;;;;;;15.30;6.35;;;;;;;5.96;95.49;101564.91;4922967;29;20035;-43
2022/12/05 00:08:55;;;;;;;17.48;6.10;;;;;;;5.96;95.84;101562.97;4925118;29;20054;-41
2022/12/05 00:11:28;;;;;;;13.55;5.95;;;;;;;5.99;95.93;101567.06;4933711;29;20493;-41
2022/12/05 00:13:57;;;;;;;11.70;5.97;;;;;;;6.01;95.85;101570.38;4928500;29;20043;-40
2022/12/05 00:16:25;;;;;;;16.25;7.10;;;;;;;6.01;95.87;101570.38;4929466;29;20044;-41
2022/12/05 00:18:52;;;;;;;11.18;6.68;;;;;;;6.03;95.85;101570.88;4929878;29;20047;-40
2022/12/05 00:21:25;;;;;;;16.75;6.15;;;;;;;6.03;95.59;101570.88;4929685;29;20583;-41
2022/12/05 00:23:54;;;;;;;12.68;5.32;;;;;;;6.01;95.74;101562.13;4927978;29;20056;-41
2022/12/05 00:26:21;;;;;;;8.82;5.05;;;;;;;6.01;95.70;101567.63;4929302;29;20044;-40
2022/12/05 00:28:49;;;;;;;12.02;5.80;;;;;;;6.01;95.47;101564.88;4919891;29;20888;-40
2022/12/05 00:31:19;;;;;;;11.27;5.53;;;;;;;6.01;95.54;101571.16;4930307;29;20051;-40
2022/12/05 00:33:46;;;;;;;8.63;4.75;;;;;;;6.01;95.38;101570.38;4929998;29;20110;-49
2022/12/05 00:36:20;;;;;;;8.40;5.57;;;;;;;6.02;95.46;101583.78;4929771;29;20051;-42
2022/12/05 00:38:47;;;;;;;10.85;4.97;;;;;;;6.03;95.47;101592.88;4923994;29;20051;-41
2022/12/05 00:41:18;;;;;;;9.30;4.78;;;;;;;6.03;95.52;101576.38;4930184;29;20046;-41
2022/12/05 00:43:45;;;;;;;10.82;5.65;;;;;;;6.03;95.37;101581.88;4929071;29;20060;-41
2022/12/05 00:46:15;;;;;;;12.10;4.88;;;;;;;6.04;95.52;101580.75;4927108;29;20056;-40
2022/12/05 00:48:42;;;;;;;9.43;4.30;;;;;;;6.04;95.21;101572.50;4921896;29;20047;-42
2022/12/05 00:51:12;;;;;;;11.93;4.43;;;;;;;6.03;95.50;101573.63;4929907;29;20043;-46
2022/12/05 00:53:40;;;;;;;8.02;4.25;;;;;;;6.05;95.50;101579.63;4928669;29;20130;-41
2022/12/05 00:56:11;;;;;;;9.85;6.22;;;;;;;6.06;95.32;101587.56;4928258;29;20138;-41
2022/12/05 00:58:38;;;;;;;13.63;4.28;;;;;;;6.10;95.38;101599.63;4925880;29;20040;-40
2022/12/05 01:01:13;;;;;;;12.15;4.80;;;;;;;6.13;95.26;101606.47;4924850;29;20055;-41
2022/12/05 01:03:40;;;;;;;11.75;5.03;;;;;;;6.13;95.28;101599.06;4926845;29;20054;-41
2022/12/05 01:06:09;;;;;;;12.80;5.47;;;;;;;6.12;94.92;101613.06;4928539;29;20405;-40
2022/12/05 01:08:36;;;;;;;6.80;3.72;;;;;;;6.11;95.17;101616.97;4929577;29;20853;-41
2022/12/05 01:11:04;;;;;;;15.35;6.47;;;;;;;6.09;94.91;101610.91;4922987;29;20628;-40
2022/12/05 01:13:31;;;;;;;11.82;4.32;;;;;;;6.05;94.87;101618.13;4928777;29;20047;-40
2022/12/05 01:15:57;;;;;;;12.73;4.60;;;;;;;6.03;95.01;101621.19;4927521;29;20402;-40
2022/12/05 01:18:25;;;;;;;8.48;3.60;;;;;;;6.01;94.90;101617.88;4928626;29;20051;-40
2022/12/05 01:20:52;;;;;;;7.80;3.53;;;;;;;6.00;94.75;101615.44;4929594;29;20063;-40
2022/12/05 01:23:19;;;;;;;10.18;4.13;;;;;;;5.97;94.60;101613.28;4929638;29;20058;-40
2022/12/05 01:25:48;;;;;;;6.22;4.22;;;;;;;5.94;94.42;101611.94;4928077;29;20110;-40
2022/12/05 01:28:16;;;;;;;6.68;3.20;;;;;;;5.93;94.12;101621.28;4928530;29;20040;-40
2022/12/05 01:30:45;;;;;;;13.48;3.40;;;;;;;5.91;94.39;101622.69;4933499;29;20543;-40
2022/12/05 01:33:12;;;;;;;9.98;3.38;;;;;;;5.89;94.38;101627.66;4933626;29;20044;-44
2022/12/05 01:35:40;;;;;;;5.75;2.90;;;;;;;5.86;94.00;101617.25;4930471;29;20044;-41
2022/12/05 01:38:07;;;;;;;7.18;3.10;;;;;;;5.82;93.60;101635.41;4932971;29;20055;-43
2022/12/05 01:40:35;;;;;;;2.88;2.53;;;;;;;5.75;93.17;101624.75;4929897;29;20048;-40
2022/12/05 01:43:02;;;;;;;9.15;3.58;;;;;;;5.71;93.21;101626.47;4929513;29;20036;-47
2022/12/05 01:45:38;;;;;;;3.92;2.13;;;;;;;5.67;92.79;101627.31;4923343;29;20050;-45
2022/12/05 01:48:10;;;;;;;3.55;2.20;;;;;;;5.62;92.71;101619.94;4932947;29;20055;-41
2022/12/05 01:50:37;;;;;;;;;;;;;;;5.58;92.66;101624.41;4931212;29;20439;-41
2022/12/05 01:53:04;;;;;;;7.47;3.50;;;;;;;5.54;92.23;101623.34;4933073;29;20365;-41
2022/12/05 01:55:33;;;;;;;5.45;2.28;;;;;;;5.51;92.13;101623.91;4933913;29;20450;-41
2022/12/05 01:58:02;;;;;;;4.03;2.40;;;;;;;5.47;91.70;101626.44;4932237;29;20103;-41
2022/12/05 02:00:28;;;;;;;3.03;2.08;;;;;;;5.46;91.47;101621.22;4932559;29;20054;-40
2022/12/05 02:02:58;;;;;;;5.10;1.83;;;;;;;5.45;91.33;101627.84;4944067;29;20056;-41
2022/12/05 02:05:31;;;;;;;4.32;2.17;;;;;;;5.46;91.27;101638.50;4932718;29;20066;-41
2022/12/05 02:08:01;;;;;;;5.45;2.03;;;;;;;5.46;91.16;101623.97;4923831;29;20059;-41
2022/12/05 02:10:33;;;;;;;3.53;1.98;;;;;;;5.46;91.07;101630.28;4932474;29;20058;-41
2022/12/05 02:13:12;;;;;;;6.85;2.60;;;;;;;5.49;90.61;101642.63;4931875;29;20054;-41
2022/12/05 02:16:00;;;;;;;4.30;2.75;;;;;;;5.50;90.23;101650.56;4932685;29;20051;-41
2022/12/05 02:18:39;;;;;;;2.92;1.90;;;;;;;5.52;90.28;101647.53;4931146;29;20054;-41
2022/12/05 02:21:27;;;;;;;7.53;2.60;;;;;;;5.58;90.33;101653.78;4932843;29;20131;-41
2022/12/05 02:24:12;;;;;;;6.68;2.60;;;;;;;5.61;90.19;101658.72;4920895;29;20047;-42
2022/12/05 02:26:59;;;;;;;5.43;2.63;;;;;;;5.63;90.17;101657.31;4932016;29;20058;-43
2022/12/05 02:29:47;;;;;;;7.88;3.42;;;;;;;5.68;90.24;101659.19;4932139;29;20075;-41
2022/12/05 02:32:36;;;;;;;10.02;3.17;;;;;;;5.70;90.39;101659.69;4919241;29;20048;-40
2022/12/05 02:35:15;;;;;;;7.00;3.40;;;;;;;5.71;90.52;101661.34;4932221;29;20044;-43
2022/12/05 02:38:06;;;;;;;8.63;2.97;;;;;;;5.69;90.56;101671.81;4931727;29;20050;-40
2022/12/05 02:40:46;;;;;;;8.93;4.07;;;;;;;5.68;90.82;101676.50;4922700;29;20051;-41
2022/12/05 02:43:39;;;;;;;8.77;4.88;;;;;;;5.65;90.83;101679.00;4929848;29;20482;-40
2022/12/05 02:46:13;;;;;;;11.05;3.60;;;;;;;5.62;91.17;101680.38;4930349;29;20051;-40
2022/12/05 02:48:44;;;;;;;4.28;3.05;;;;;;;5.60;91.25;101682.59;4932065;29;20055;-40
2022/12/05 02:51:16;;;;;;;7.30;3.47;;;;;;;5.59;91.50;101680.97;4932439;29;20051;-41
2022/12/05 02:53:44;;;;;;;7.35;3.90;;;;;;;5.57;91.62;101683.19;4938758;28;20098;-40
2022/12/05 02:56:11;;;;;;;6.13;3.95;;;;;;;5.57;91.64;101685.09;4930238;29;20043;-40
2022/12/05 02:58:47;;;;;;;8.15;4.22;;;;;;;5.55;91.97;101679.91;4927494;29;20414;-40
2022/12/05 03:01:14;;;;;;;5.28;3.25;;;;;;;5.54;92.00;101668.09;4965763;23;20062;-40
2022/12/05 03:03:41;;;;;;;5.88;3.25;;;;;;;5.52;92.27;101678.56;4927906;29;20088;-41
2022/12/05 03:06:14;;;;;;;5.70;3.42;;;;;;;5.53;92.38;101674.69;4929426;29;20055;-40
2022/12/05 03:08:55;;;;;;;8.77;4.28;;;;;;;5.53;92.52;101669.19;4938487;29;20043;-40
2022/12/05 03:11:21;;;;;;;7.57;4.10;;;;;;;5.54;92.71;101668.09;4933387;29;20048;-40
2022/12/05 03:13:53;;;;;;;7.88;3.70;;;;;;;5.58;92.71;101684.00;4931685;29;20545;-44
2022/12/05 03:16:28;;;;;;;6.07;4.45;;;;;;;5.58;92.70;101689.50;4931194;29;20115;-44
2022/12/05 03:19:00;;;;;;;9.13;4.88;;;;;;;5.59;92.93;101680.16;4931600;29;20047;-40
2022/12/05 03:21:36;;;;;;;7.35;4.20;;;;;;;5.60;93.02;101682.59;4931425;29;20115;-41
2022/12/05 03:24:10;;;;;;;8.05;4.32;;;;;;;5.62;92.88;101691.38;4931274;29;20847;-40
2022/12/05 03:26:48;;;;;;;8.63;4.63;;;;;;;5.63;93.07;101693.03;4930819;29;20391;-40
2022/12/05 03:29:15;;;;;;;7.32;4.35;;;;;;;5.63;93.27;101692.19;4930516;29;20056;-41
2022/12/05 03:31:53;;;;;;;10.10;5.25;;;;;;;5.61;93.47;101694.44;4930222;29;20066;-40
2022/12/05 03:34:48;;;;;;;12.95;5.43;;;;;;;5.61;93.40;101694.44;4930162;29;20043;-40
2022/12/05 03:37:26;;;;;;;8.55;4.43;;;;;;;5.60;93.84;101688.09;4930991;29;20413;-40
2022/12/05 03:40:05;;;;;;;7.50;3.97;;;;;;;5.61;93.85;101695.25;4920526;29;20759;-40
2022/12/05 03:42:38;;;;;;;11.60;4.80;;;;;;;5.61;93.89;101694.44;4922142;29;20075;-40
2022/12/05 03:45:14;;;;;;;;;;;;;;;5.59;93.97;101700.19;4929957;29;20063;-42
2022/12/05 03:47:54;;;;;;;9.70;4.55;;;;;;;5.58;94.08;101693.06;4927831;29;20013;-40
2022/12/05 03:50:28;;;;;;;8.50;5.03;;;;;;;5.58;94.14;101703.25;4928207;29;20044;-44
2022/12/05 03:53:09;;;;;;;8.38;5.10;;;;;;;5.58;94.40;101700.50;4931042;29;20040;-41
2022/12/05 03:56:01;;;;;;;8.38;4.70;;;;;;;5.59;94.58;101700.19;4934273;29;20043;-43
2022/12/05 03:58:37;;;;;;;6.97;4.47;;;;;;;5.59;94.70;101702.13;4928707;29;20435;-40
2022/12/05 04:01:07;;;;;;;8.52;4.57;;;;;;;5.61;94.93;101694.44;4911038;29;20075;-41
2022/12/05 04:03:45;;;;;;;9.25;5.00;;;;;;;5.63;94.85;101698.53;4925866;29;20056;-41
2022/12/05 04:06:35;;;;;;;11.68;4.43;;;;;;;5.65;94.89;101700.97;4926860;29;20079;-42
2022/12/05 04:09:11;;;;;;;11.60;5.35;;;;;;;5.66;94.99;101710.84;4928855;29;20058;-40
2022/12/05 04:11:49;;;;;;;12.40;5.88;;;;;;;5.67;95.00;101715.22;4927949;29;20422;-43
2022/12/05 04:14:23;;;;;;;7.88;4.57;;;;;;;5.67;95.13;101712.47;4930131;29;20056;-43
2022/12/05 04:17:03;;;;;;;10.10;5.28;;;;;;;5.70;95.15;101731.13;4928706;29;20075;-40
2022/12/05 04:22:43;;;;;;;10.60;4.03;;;;;;;5.72;95.48;101726.19;4932025;29;20039;-40
2022/12/05 04:25:31;;;;;;;7.68;3.80;;;;;;;5.71;95.73;101738.28;4927660;29;20047;-39
2022/12/05 04:28:11;;;;;;;9.75;3.13;;;;;;;5.70;95.46;101731.13;4927398;29;20058;-40
2022/12/05 04:30:50;;;;;;;9.90;4.32;;;;;;;5.69;95.55;101726.75;4922867;29;20146;-40
2022/12/05 04:33:43;;;;;;;10.63;3.63;;;;;;;5.68;95.41;101722.38;4928337;29;20064;-40
2022/12/05 04:36:20;;;;;;;11.02;4.03;;;;;;;5.66;95.52;101738.31;4928736;29;20060;-44
2022/12/05 04:39:10;;;;;;;10.50;4.30;;;;;;;5.65;95.71;101731.19;4924304;29;20051;-40
2022/12/05 04:41:52;;;;;;;8.63;3.45;;;;;;;5.65;95.71;101725.69;4919672;29;20050;-41
2022/12/05 04:44:24;;;;;;;6.85;3.63;;;;;;;5.65;95.94;101725.69;4928853;29;20498;-40
2022/12/05 04:46:53;;;;;;;9.23;2.88;;;;;;;5.66;96.15;101724.59;4928928;29;20097;-40
2022/12/05 04:49:23;;;;;;;6.18;3.20;;;;;;;5.68;95.98;101734.19;4929247;29;20052;-41
2022/12/05 04:51:55;;;;;;;8.98;2.83;;;;;;;5.70;96.07;101739.38;4929073;29;20043;-40
2022/12/05 04:54:31;;;;;;;12.25;3.97;;;;;;;5.67;96.01;101737.19;4927331;29;20040;-40
2022/12/05 04:57:41;;;;;;;11.38;5.65;;;;;;;5.64;96.12;101748.78;4927171;29;20489;-43
2022/12/05 05:00:08;;;;;;;9.25;4.75;;;;;;;5.64;96.07;101748.78;4904838;29;20074;-40
2022/12/05 05:02:50;;;;;;;6.22;3.53;;;;;;;5.62;96.35;101749.06;4915624;29;20098;-44
2022/12/05 05:05:19;;;;;;;8.43;3.50;;;;;;;5.62;96.45;101734.50;4913312;29;20051;-40
2022/12/05 05:07:49;;;;;;;9.35;3.83;;;;;;;5.61;96.37;101736.44;4928119;29;20056;-40
2022/12/05 05:10:24;;;;;;;6.65;4.07;;;;;;;5.62;96.50;101731.75;4928502;29;20055;-41
2022/12/05 05:12:51;;;;;;;10.15;3.58;;;;;;;5.62;96.74;101740.81;4926982;29;20446;-40
2022/12/05 05:15:17;;;;;;;6.95;3.40;;;;;;;5.63;96.98;101741.66;4928328;29;20085;-41
2022/12/05 05:17:44;;;;;;;7.82;3.22;;;;;;;5.64;96.86;101743.31;4928814;29;20055;-40
2022/12/05 05:20:23;;;;;;;8.27;4.07;;;;;;;5.66;97.11;101746.56;4928005;29;20047;-40
2022/12/05 05:22:51;;;;;;;11.20;4.15;;;;;;;5.69;97.06;101743.25;4928095;29;20071;-40
2022/12/05 05:25:19;;;;;;;10.88;4.32;;;;;;;5.71;97.23;101754.75;4928246;29;20048;-40
2022/12/05 05:27:50;;;;;;;8.98;4.68;;;;;;;5.72;96.88;101751.72;4927928;29;20424;-40
2022/12/05 05:30:18;;;;;;;7.82;4.05;;;;;;;5.74;97.40;101765.19;4928097;29;20067;-40
2022/12/05 05:32:46;;;;;;;9.35;3.47;;;;;;;5.72;97.19;101759.97;4934262;29;20291;-40
2022/12/05 05:35:13;;;;;;;10.10;3.55;;;;;;;5.71;97.28;101754.75;4928565;29;20040;-41
2022/12/05 05:37:40;;;;;;;4.65;3.30;;;;;;;5.67;97.19;101753.69;4911711;29;20051;-39
2022/12/05 05:40:09;;;;;;;11.18;3.92;;;;;;;5.63;97.35;101752.63;4928695;29;20494;-40
2022/12/05 05:42:44;;;;;;;4.90;3.08;;;;;;;5.57;97.30;101753.78;4924909;29;20075;-40
2022/12/05 05:45:13;;;;;;;6.57;3.15;;;;;;;5.51;97.17;101751.06;4927928;29;20055;-42
2022/12/05 05:47:40;;;;;;;11.07;3.92;;;;;;;5.46;97.38;101753.88;4929451;29;20144;-39
2022/12/05 05:50:08;;;;;;;5.45;3.10;;;;;;;5.42;97.60;101755.56;4926124;29;20467;-40
2022/12/05 05:52:36;;;;;;;7.75;2.42;;;;;;;5.41;97.59;101750.34;4928180;29;20058;-40
2022/12/05 05:55:05;;;;;;;7.45;3.40;;;;;;;5.39;97.39;101764.34;4927776;29;20505;-40
2022/12/05 05:57:32;;;;;;;5.47;2.15;;;;;;;5.39;97.64;101764.34;4925788;29;20058;-44
2022/12/05 05:59:58;;;;;;;5.47;2.50;;;;;;;5.41;97.47;101769.56;4927081;29;20051;-40
2022/12/05 06:02:31;;;;;;;7.28;3.60;;;;;;;5.43;97.32;101759.91;4928074;29;20063;-42
2022/12/05 06:04:58;;;;;;;4.65;2.28;;;;;;;5.44;97.37;101756.09;4926808;29;20055;-40
2022/12/05 06:07:25;;;;;;;7.68;2.88;;;;;;;5.47;97.28;101761.00;4927664;29;20062;-40
2022/12/05 06:09:52;;;;;;;6.53;2.72;;;;;;;5.50;97.29;101771.41;4928305;29;20055;-40
2022/12/05 06:12:19;;;;;;;4.88;2.60;;;;;;;5.56;97.12;101779.63;4928178;29;20055;-41
2022/12/05 06:14:49;;;;;;;11.48;4.05;;;;;;;5.60;97.25;101783.41;4928058;29;20054;-40
2022/12/05 06:17:16;;;;;;;5.68;1.98;;;;;;;5.63;97.42;101780.94;4930475;29;20053;-41
2022/12/05 06:19:43;;;;;;;7.65;3.85;;;;;;;5.66;97.16;101785.03;4931701;29;20036;-44
2022/12/05 06:22:09;;;;;;;5.93;2.47;;;;;;;5.67;97.26;101787.47;4931189;29;20458;-40
2022/12/05 06:24:36;;;;;;;6.85;3.65;;;;;;;5.71;97.15;101782.25;4920539;29;20421;-40
2022/12/05 06:27:03;;;;;;;7.32;2.70;;;;;;;5.71;97.24;101783.06;4932090;29;20047;-42
2022/12/05 06:29:30;;;;;;;9.30;3.80;;;;;;;5.71;97.12;101783.06;4930403;29;20063;-40
2022/12/05 06:32:00;;;;;;;17.30;3.50;;;;;;;5.70;97.10;101780.59;4929864;29;20062;-42
2022/12/05 06:34:27;;;;;;;3.80;2.08;;;;;;;5.72;97.18;101775.66;4929636;29;20107;-40
2022/12/05 06:36:53;;;;;;;2.90;1.70;;;;;;;5.75;97.00;101784.13;4931454;29;20480;-41
2022/12/05 06:39:20;;;;;;;4.25;1.73;;;;;;;5.77;96.88;101781.09;4930783;29;20115;-43
2022/12/05 06:41:47;;;;;;;9.27;2.33;;;;;;;5.77;96.63;101783.84;4930598;29;20067;-40
2022/12/05 06:44:13;;;;;;;6.65;1.83;;;;;;;5.76;96.66;101780.28;4928154;29;20554;-40
2022/12/05 06:46:40;;;;;;;4.50;1.88;;;;;;;5.78;96.71;101777.22;4930967;29;20486;-40
2022/12/05 06:49:09;;;;;;;10.18;2.22;;;;;;;5.75;96.60;101766.81;4931353;29;20058;-40
2022/12/05 06:51:36;;;;;;;6.38;2.15;;;;;;;5.74;96.25;101773.44;4931425;29;20099;-47
2022/12/05 06:54:03;;;;;;;7.88;2.45;;;;;;;5.75;96.73;101789.59;4929999;29;20134;-47
2022/12/05 06:56:29;;;;;;;8.75;2.50;;;;;;;5.77;96.68;101776.41;4928536;29;20046;-42
2022/12/05 06:58:56;;;;;;;7.32;2.05;;;;;;;5.80;96.58;101791.50;4930050;29;20054;-40
2022/12/05 07:01:42;;;;;;;12.95;1.95;;;;;;;5.82;96.68;101797.53;4925090;29;20268;-40
2022/12/05 07:04:23;;;;;;;5.07;2.35;;;;;;;5.80;96.47;101802.50;4927987;29;20679;-42
2022/12/05 07:06:51;;;;;;;4.72;2.63;;;;;;;5.76;96.30;101804.19;4921661;29;20091;-40
2022/12/05 07:09:19;;;;;;;9.82;2.60;;;;;;;5.72;96.13;101800.38;4920014;29;20052;-40
2022/12/05 07:11:48;;;;;;;7.47;1.35;;;;;;;5.70;96.21;101802.56;4931226;29;20770;-44
2022/12/05 07:14:15;;;;;;;5.25;1.70;;;;;;;5.69;96.07;101811.94;4928821;29;20063;-40
2022/12/05 07:17:02;;;;;;;10.20;1.90;;;;;;;5.66;95.81;101809.75;4926327;29;20052;-39
2022/12/05 07:19:29;;;;;;;6.00;3.13;;;;;;;5.61;96.03;101816.13;4931145;29;20079;-40
2022/12/05 07:21:55;;;;;;;4.93;1.50;;;;;;;5.59;95.74;101817.50;4930599;29;20058;-40
2022/12/05 07:24:22;;;;;;;4.78;1.63;;;;;;;5.57;95.74;101816.94;4929113;29;20054;-40
2022/12/05 07:26:49;;;;;;;1.85;1.55;;;;;;;5.56;95.83;101818.88;4929684;29;20071;-41
2022/12/05 07:29:15;;;;;;;8.70;2.58;;;;;;;5.56;95.72;101823.56;4911936;29;20102;-40
2022/12/05 07:31:42;;;;;;;4.90;1.38;;;;;;;5.54;95.81;101821.91;4930195;29;20577;-42
2022/12/05 07:34:09;;;;;;;3.40;1.75;;;;;;;5.56;95.46;101826.31;4926368;29;20051;-40
2022/12/05 07:36:37;;;;;;;4.38;1.45;;;;;;;5.54;95.45;101827.41;4929602;29;20066;-40
2022/12/05 07:39:04;;;;;;;5.00;2.05;;;;;;;5.56;95.98;101824.38;4930639;29;20048;-40
2022/12/05 07:41:32;;;;;;;4.30;1.95;;;;;;;5.58;95.48;101829.59;4917051;29;20050;-40
2022/12/05 07:43:59;;;;;;;2.67;1.70;;;;;;;5.63;95.80;101832.31;4929991;29;20055;-40
2022/12/05 07:46:27;;;;;;;3.58;1.90;;;;;;;5.67;95.53;101830.59;4930929;29;20043;-39
2022/12/05 07:48:54;;;;;;;7.07;2.05;;;;;;;5.72;95.61;101847.88;4930735;29;20510;-43
2022/12/05 07:51:21;;;;;;;2.83;1.70;;;;;;;5.73;95.66;101843.22;4930801;29;20135;-40
2022/12/05 07:53:49;;;;;;;6.10;2.20;;;;;;;5.72;95.76;101850.63;4930433;29;20048;-42
2022/12/05 07:56:17;;;;;;;14.82;3.53;;;;;;;5.69;95.81;101844.91;4930327;29;20779;-40
2022/12/05 07:58:46;;;;;;;9.15;2.78;;;;;;;5.67;95.81;101852.59;4930311;29;20593;-40
2022/12/05 08:01:21;;;;;;;6.15;2.45;;;;;;;5.66;95.83;101856.47;4930604;29;20052;-40
2022/12/05 08:03:51;;;;;;;14.63;3.25;;;;;;;5.69;96.09;101861.38;4929860;29;20051;-42
2022/12/05 08:06:20;;;;;;;7.00;2.50;;;;;;;5.71;96.56;101870.16;4930173;29;20047;-40
2022/12/05 08:08:48;;;;;;;8.07;2.47;;;;;;;5.74;96.36;101869.59;4928750;29;20490;-40
2022/12/05 08:11:41;;;;;;;3.92;1.30;;;;;;;5.74;96.37;101870.41;4929436;29;20462;-40
2022/12/05 08:14:11;;;;;;;7.00;1.00;;;;;;;5.74;96.37;101867.66;4929258;29;20039;-43
2022/12/05 08:16:38;;;;;;;5.47;2.65;;;;;;;5.75;96.10;101873.97;4929629;29;20040;-40
2022/12/05 08:19:09;;;;;;;6.80;1.27;;;;;;;5.80;95.90;101880.25;4929216;29;20047;-40
2022/12/05 08:21:35;;;;;;;5.47;1.30;;;;;;;5.85;95.93;101876.69;4925974;29;20043;-41
2022/12/05 08:24:06;;;;;;;4.10;1.48;;;;;;;5.88;95.85;101892.59;4929881;29;20051;-40
2022/12/05 08:26:35;;;;;;;7.25;1.70;;;;;;;5.90;95.68;101885.72;4927680;29;20454;-43
2022/12/05 08:29:13;;;;;;;5.10;1.80;;;;;;;5.93;95.76;101882.38;4917154;29;20066;-43
2022/12/05 08:31:46;;;;;;;5.22;1.70;;;;;;;5.94;95.81;101885.94;4924847;29;20075;-45
2022/12/05 08:34:14;;;;;;;6.80;1.80;;;;;;;5.96;95.69;101889.22;4916731;29;20052;-40
2022/12/05 08:36:41;;;;;;;2.00;0.90;;;;;;;5.89;95.17;101888.75;4929956;29;20047;-40
2022/12/05 08:39:13;;;;;;;2.35;0.73;;;;;;;5.84;95.29;101900.56;4913871;29;20123;-40
2022/12/05 08:41:44;;;;;;;2.95;1.10;;;;;;;5.82;95.55;101893.72;4930053;29;20519;-45
2022/12/05 08:44:15;;;;;;;6.72;1.17;;;;;;;5.82;95.51;101907.44;4931027;29;20486;-43
2022/12/05 08:46:43;;;;;;;5.72;2.38;;;;;;;5.83;95.84;101906.31;4928897;29;20043;-46
2022/12/05 08:49:11;;;;;;;5.70;1.65;;;;;;;5.82;95.84;101905.53;4930785;29;20089;-41
2022/12/05 08:51:39;;;;;;;3.22;1.50;;;;;;;5.82;96.21;101910.19;4930141;29;20138;-39
2022/12/05 08:54:07;;;;;;;4.70;1.13;;;;;;;5.82;96.21;101912.94;4922622;29;20114;-45
2022/12/05 08:56:34;;;;;;;6.68;1.45;;;;;;;5.82;96.36;101915.69;4928449;29;20055;-45
2022/12/05 08:59:01;;;;;;;6.57;1.63;;;;;;;5.81;96.52;101908.56;4927438;29;20056;-41
2022/12/05 09:01:32;;;;;;;9.52;1.45;;;;;;;5.82;96.54;101915.69;4914778;29;20158;-40
2022/12/05 09:04:00;;;;;;;4.20;1.70;;;;;;;5.82;96.53;101907.44;4930925;29;20069;-41
2022/12/05 09:06:28;;;;;;;3.60;0.98;;;;;;;5.82;96.22;101910.19;4930184;29;20094;-41
2022/12/05 09:08:57;;;;;;;5.97;1.33;;;;;;;5.81;96.38;101908.56;4929695;29;20401;-41
2022/12/05 09:11:32;;;;;;;3.83;1.17;;;;;;;5.79;96.37;101916.25;4931127;29;20055;-42
2022/12/05 09:14:00;;;;;;;6.95;1.45;;;;;;;5.79;96.38;101917.09;4930629;29;20138;-41
2022/12/05 09:16:30;;;;;;;7.25;1.90;;;;;;;5.80;96.30;101917.91;4927370;29;20066;-40
2022/12/05 09:19:03;;;;;;;4.38;1.10;;;;;;;5.78;96.27;101909.13;4935126;29;20054;-40
2022/12/05 09:21:31;;;;;;;5.55;1.15;;;;;;;5.75;96.26;101909.69;4931559;29;20051;-40
2022/12/05 09:23:59;;;;;;;3.13;1.20;;;;;;;5.71;96.37;101908.63;4930122;29;20055;-41
2022/12/05 09:26:28;;;;;;;5.90;1.52;;;;;;;5.67;96.43;101919.34;4929746;29;20051;-43
2022/12/05 09:28:55;;;;;;;2.92;1.38;;;;;;;5.65;96.54;101909.75;4911781;29;20055;-46
2022/12/05 09:31:25;;;;;;;7.30;1.67;;;;;;;5.65;96.73;101928.97;4931360;29;20067;-41
2022/12/05 09:33:53;;;;;;;5.00;1.25;;;;;;;5.64;96.38;101925.41;4931078;29;20044;-40
2022/12/05 09:36:23;;;;;;;4.35;0.98;;;;;;;5.66;96.55;101919.66;4925403;29;20044;-40
2022/12/05 09:38:50;;;;;;;5.05;0.90;;;;;;;5.68;96.55;101920.16;4929785;29;20047;-41
2022/12/05 09:42:03;;;;;;;2.20;0.98;;;;;;;5.70;96.35;101918.78;4929971;29;20043;-41
2022/12/05 09:44:33;;;;;;;;;;;;;;;5.76;95.90;101922.31;4927208;29;20100;-41
2022/12/05 09:47:10;;;;;;;5.85;1.00;;;;;;;5.79;95.75;101924.50;4929553;29;19926;-42
2022/12/05 09:49:48;;;;;;;11.05;2.67;;;;;;;5.82;95.62;101926.69;4929526;29;20043;-46
2022/12/05 09:52:32;;;;;;;7.55;1.67;;;;;;;5.90;95.66;101937.13;4932364;29;20134;-41
2022/12/05 09:55:09;;;;;;;2.22;0.80;;;;;;;5.99;95.76;101927.97;4920636;29;20055;-42
2022/12/05 09:57:42;;;;;;;2.92;1.67;;;;;;;6.09;95.72;101932.56;4931163;29;20052;-41
2022/12/05 10:00:09;;;;;;;10.07;2.65;;;;;;;6.18;95.79;101939.09;4931652;29;20212;-46
2022/12/05 10:03:03;;;;;;;12.93;2.05;;;;;;;6.26;95.23;101937.66;4931344;29;20063;-41
2022/12/05 10:05:59;;;;;;;7.00;1.20;;;;;;;6.29;95.00;101932.41;4923129;29;20071;-42
2022/12/05 10:08:43;;;;;;;7.63;1.52;;;;;;;6.32;94.57;101936.53;4929657;29;20059;-40
2022/12/05 10:11:31;;;;;;;4.90;1.02;;;;;;;6.39;94.62;101926.00;4932813;29;20585;-45
2022/12/05 10:14:08;;;;;;;9.95;1.48;;;;;;;6.46;94.71;101940.25;4925080;29;20561;-44
2022/12/05 10:16:44;;;;;;;5.55;1.10;;;;;;;6.55;94.73;101924.75;4932590;29;20379;-41
2022/12/05 10:19:43;;;;;;;7.25;1.23;;;;;;;6.67;94.65;101936.22;4932653;29;20490;-41
2022/12/05 10:22:14;;;;;;;3.55;1.63;;;;;;;6.71;94.46;101940.84;4929540;29;20066;-44
2022/12/05 10:24:52;;;;;;;2.08;0.80;;;;;;;6.71;94.11;101931.75;4932184;29;20111;-41
2022/12/05 10:27:26;;;;;;;2.15;1.60;;;;;;;6.69;94.13;101940.31;4932546;29;20434;-41
2022/12/05 10:30:00;;;;;;;3.40;1.40;;;;;;;6.67;94.10;101937.00;4932105;29;20695;-43
2022/12/05 10:32:43;;;;;;;5.57;1.65;;;;;;;6.67;93.99;101939.75;4931914;29;20075;-42
2022/12/05 10:35:32;;;;;;;8.85;3.35;;;;;;;6.67;94.01;101939.75;4930776;29;20047;-42
2022/12/05 10:38:04;;;;;;;10.77;3.13;;;;;;;6.64;94.16;101940.38;4902779;29;20051;-41
2022/12/05 10:40:38;;;;;;;2.65;0.90;;;;;;;6.64;93.80;101937.63;4932227;29;20066;-41
2022/12/05 10:43:07;;;;;;;10.07;1.33;;;;;;;6.63;93.79;101938.72;4918429;29;20044;-41
2022/12/05 10:45:45;;;;;;;6.38;1.00;;;;;;;6.62;93.79;101942.56;4932064;29;20709;-41
2022/12/05 10:48:16;;;;;;;6.75;1.20;;;;;;;6.64;93.72;101939.53;4931858;29;20489;-41
2022/12/05 10:50:44;;;;;;;1.38;0.82;;;;;;;6.68;93.68;101946.91;4915395;29;20565;-41
2022/12/05 10:53:25;;;;;;;6.18;1.50;;;;;;;6.71;93.57;101946.34;4917464;29;20040;-41
2022/12/05 10:55:53;;;;;;;3.72;0.77;;;;;;;6.69;93.07;101943.06;4931626;29;20052;-42
2022/12/05 10:58:54;;;;;;;3.78;1.27;;;;;;;6.66;93.03;101940.88;4931690;29;20107;-41
2022/12/05 11:01:22;;;;;;;8.18;1.23;;;;;;;6.65;93.04;101935.66;4930943;29;20047;-43
2022/12/05 11:03:59;;;;;;;3.70;0.70;;;;;;;6.70;93.03;101939.19;4931177;29;20059;-41
2022/12/05 11:06:28;;;;;;;5.78;1.50;;;;;;;6.75;92.62;101930.88;4931761;29;20067;-41
2022/12/05 11:09:13;;;;;;;4.40;1.48;;;;;;;6.78;92.58;101945.97;4929711;29;20062;-42
2022/12/05 11:11:41;;;;;;;5.10;0.80;;;;;;;6.80;92.23;101945.72;4931513;29;20525;-41
2022/12/05 11:14:35;;;;;;;6.93;1.80;;;;;;;6.82;92.17;101951.72;4931676;29;20051;-45
2022/12/05 11:17:03;;;;;;;3.38;1.00;;;;;;;6.83;91.90;101964.41;4929770;29;20464;-41
2022/12/05 11:19:38;;;;;;;3.65;1.20;;;;;;;6.80;91.75;101945.72;4931519;29;20439;-41
2022/12/05 11:22:06;;;;;;;5.28;0.65;;;;;;;6.78;91.83;101945.19;4923981;29;20058;-41
2022/12/05 11:24:37;;;;;;;10.18;1.02;;;;;;;6.80;91.83;101931.94;4931833;29;20565;-42
2022/12/05 11:27:29;;;;;;;4.47;1.25;;;;;;;6.75;91.66;101919.88;4931777;29;20477;-41
2022/12/05 11:30:02;;;;;;;3.33;1.40;;;;;;;6.77;91.81;101929.78;4931479;29;20481;-41
2022/12/05 11:32:32;;;;;;;5.78;1.55;;;;;;;6.79;92.00;101930.28;4930912;29;20048;-42
2022/12/05 11:35:09;;;;;;;4.38;2.65;;;;;;;6.79;91.90;101930.28;4930983;29;20110;-41
2022/12/05 11:37:38;;;;;;;4.78;2.40;;;;;;;6.79;91.96;101941.31;4930274;29;20040;-47
2022/12/05 11:40:14;;;;;;;5.85;1.65;;;;;;;6.82;91.98;101936.03;4922325;29;20047;-44
2022/12/05 11:43:05;;;;;;;6.18;1.20;;;;;;;6.89;92.07;101933.75;4930965;29;20138;-41
2022/12/05 11:46:04;;;;;;;6.43;1.35;;;;;;;6.96;91.72;101938.94;4931224;29;20132;-42
2022/12/05 11:48:59;;;;;;;10.13;0.98;;;;;;;7.05;91.61;101928.91;4931018;29;20051;-42
2022/12/05 11:51:25;;;;;;;2.63;0.82;;;;;;;7.12;91.52;101946.72;4931003;29;20040;-44
2022/12/05 11:54:10;;;;;;;4.22;0.88;;;;;;;7.14;90.96;101958.28;4931114;29;20054;-42
2022/12/05 11:56:42;;;;;;;4.80;0.88;;;;;;;7.11;90.46;101933.25;4928039;29;20051;-41
2022/12/05 11:59:24;;;;;;;5.15;0.82;;;;;;;7.02;90.35;101946.00;4930684;29;20047;-41
2022/12/05 12:01:58;;;;;;;1.88;0.80;;;;;;;6.94;90.78;101944.72;4921763;29;20099;-41